createdAt,value
2023-05-10T00:02:21.539Z,15.99
2023-05-10T00:04:47.906Z,16.00
2023-05-10T00:07:14.287Z,15.97
2023-05-10T00:09:40.569Z,15.94
2023-05-10T00:12:06.959Z,15.94
2023-05-10T00:14:33.320Z,15.92
2023-05-10T00:16:59.686Z,15.90
2023-05-10T00:19:26.019Z,15.89
2023-05-10T00:21:52.403Z,15.90
2023-05-10T00:24:18.677Z,15.88
2023-05-10T00:26:45.082Z,15.86
2023-05-10T00:29:11.468Z,15.81
2023-05-10T00:31:37.789Z,15.80
2023-05-10T00:34:04.310Z,15.80
2023-05-10T00:36:30.586Z,15.75
2023-05-10T00:38:56.868Z,15.72
2023-05-10T00:41:23.190Z,15.69
2023-05-10T00:43:49.515Z,15.64
2023-05-10T00:46:16.712Z,15.60
2023-05-10T00:48:44.281Z,15.54
2023-05-10T00:51:10.836Z,15.53
2023-05-10T00:53:37.233Z,15.52
2023-05-10T00:56:03.762Z,15.52
2023-05-10T00:58:30.185Z,15.49
2023-05-10T01:00:56.549Z,15.44
2023-05-10T01:03:23.003Z,15.38
2023-05-10T01:05:49.406Z,15.36
2023-05-10T01:08:15.868Z,15.32
2023-05-10T01:10:43.739Z,15.30
2023-05-10T01:13:10.733Z,15.30
2023-05-10T01:15:37.755Z,15.27
2023-05-10T01:18:04.321Z,15.26
2023-05-10T01:20:41.248Z,15.25
2023-05-10T01:23:49.952Z,15.22
2023-05-10T01:26:40.103Z,15.20
2023-05-10T01:29:17.258Z,15.19
2023-05-10T01:32:16.224Z,15.22
2023-05-10T01:34:56.668Z,15.23
2023-05-10T01:37:32.042Z,15.22
2023-05-10T01:40:20.458Z,15.18
2023-05-10T01:42:52.693Z,15.13
2023-05-10T01:45:31.712Z,15.11
2023-05-10T01:48:09.206Z,15.10
2023-05-10T01:50:37.415Z,15.08
2023-05-10T01:53:07.482Z,15.07
2023-05-10T01:55:40.688Z,15.07
2023-05-10T01:58:14.784Z,15.06
2023-05-10T02:00:44.225Z,15.05
2023-05-10T02:03:12.146Z,15.03
2023-05-10T02:05:39.715Z,14.97
2023-05-10T02:08:07.700Z,14.96
2023-05-10T02:10:36.153Z,14.95
2023-05-10T02:13:04.181Z,14.97
2023-05-10T02:15:31.566Z,14.98
2023-05-10T02:18:00.739Z,14.98
2023-05-10T02:20:27.814Z,15.00
2023-05-10T02:22:56.626Z,14.99
2023-05-10T02:25:24.851Z,14.97
2023-05-10T02:27:54.581Z,14.99
2023-05-10T02:30:22.428Z,15.01
2023-05-10T02:32:50.245Z,15.04
2023-05-10T02:35:17.664Z,15.07
2023-05-10T02:37:46.252Z,15.08
2023-05-10T02:40:13.734Z,15.09
2023-05-10T02:42:44.786Z,15.06
2023-05-10T02:45:24.541Z,15.06
2023-05-10T02:47:50.913Z,15.08
2023-05-10T02:50:17.510Z,15.03
2023-05-10T02:52:48.642Z,15.00
2023-05-10T02:55:17.122Z,15.03
2023-05-10T02:57:51.741Z,14.92
2023-05-10T03:00:18.497Z,14.86
2023-05-10T03:02:44.939Z,14.82
2023-05-10T03:05:11.295Z,14.80
2023-05-10T03:07:37.815Z,14.74
2023-05-10T03:10:04.604Z,14.74
2023-05-10T03:12:53.097Z,14.66
2023-05-10T03:15:47.397Z,14.61
2023-05-10T03:18:18.195Z,14.53
2023-05-10T03:20:56.427Z,14.48
2023-05-10T03:23:34.967Z,14.45
2023-05-10T03:26:02.532Z,14.39
2023-05-10T03:28:29.579Z,14.33
2023-05-10T03:30:56.991Z,14.30
2023-05-10T03:33:23.323Z,14.29
2023-05-10T03:35:49.696Z,14.25
2023-05-10T03:38:16.077Z,14.20
2023-05-10T03:40:42.550Z,14.18
2023-05-10T03:43:09.102Z,14.16
2023-05-10T03:45:35.405Z,14.13
2023-05-10T03:48:02.010Z,14.11
2023-05-10T03:50:28.473Z,14.12
2023-05-10T03:52:55.012Z,14.14
2023-05-10T03:55:21.527Z,14.20
2023-05-10T03:57:47.784Z,14.20
2023-05-10T04:00:14.703Z,14.23
2023-05-10T04:02:41.551Z,14.21
2023-05-10T04:05:08.358Z,14.19
2023-05-10T04:07:34.760Z,14.17
2023-05-10T04:10:01.103Z,14.12
2023-05-10T04:12:27.518Z,14.11
2023-05-10T04:14:53.815Z,14.12
2023-05-10T04:17:20.184Z,14.09
2023-05-10T04:19:46.569Z,14.09
2023-05-10T04:22:12.914Z,14.07
2023-05-10T04:24:39.235Z,14.05
2023-05-10T04:27:05.552Z,14.04
2023-05-10T04:29:31.946Z,13.98
2023-05-10T04:31:58.238Z,13.97
2023-05-10T04:34:24.626Z,13.99
2023-05-10T04:36:50.927Z,13.97
2023-05-10T04:39:17.412Z,13.99
2023-05-10T04:41:43.719Z,13.99
2023-05-10T04:44:10.032Z,14.02
2023-05-10T04:46:36.409Z,14.07
2023-05-10T04:49:02.845Z,14.08
2023-05-10T04:51:29.143Z,14.05
2023-05-10T04:54:05.281Z,14.07
2023-05-10T04:56:32.643Z,14.07
2023-05-10T04:58:58.988Z,14.10
2023-05-10T05:01:25.321Z,14.07
2023-05-10T05:03:51.708Z,14.08
2023-05-10T05:06:18.207Z,14.18
2023-05-10T05:08:44.729Z,14.21
2023-05-10T05:11:11.057Z,14.22
2023-05-10T05:13:37.366Z,14.20
2023-05-10T05:16:04.048Z,14.19
2023-05-10T05:18:30.506Z,14.18
2023-05-10T05:20:56.856Z,14.14
2023-05-10T05:23:23.154Z,14.27
2023-05-10T05:25:49.522Z,14.29
2023-05-10T05:28:15.817Z,14.32
2023-05-10T05:30:42.113Z,14.33
2023-05-10T05:33:08.475Z,14.33
2023-05-10T05:35:34.832Z,14.25
2023-05-10T05:38:01.181Z,14.30
2023-05-10T05:40:27.459Z,14.29
2023-05-10T05:42:53.752Z,14.39
2023-05-10T05:45:20.221Z,14.42
2023-05-10T05:47:46.809Z,14.41
2023-05-10T05:50:13.266Z,14.44
2023-05-10T05:52:39.698Z,14.49
2023-05-10T05:55:06.164Z,14.54
2023-05-10T05:57:32.581Z,14.52
2023-05-10T05:59:58.852Z,14.51
2023-05-10T06:02:25.303Z,14.54
2023-05-10T06:04:51.781Z,14.61
2023-05-10T06:07:18.106Z,14.77
2023-05-10T06:09:44.485Z,14.85
2023-05-10T06:12:10.776Z,14.85
2023-05-10T06:14:37.087Z,14.89
2023-05-10T06:17:03.470Z,14.82
2023-05-10T06:19:29.813Z,14.94
2023-05-10T06:21:56.222Z,15.00
2023-05-10T06:24:22.635Z,15.07
2023-05-10T06:26:48.919Z,15.09
2023-05-10T06:29:15.230Z,15.19
2023-05-10T06:31:41.599Z,15.28
2023-05-10T06:34:07.982Z,15.40
2023-05-10T06:36:34.809Z,15.45
2023-05-10T06:39:01.271Z,15.55
2023-05-10T06:41:27.561Z,15.70
2023-05-10T06:43:53.867Z,15.79
2023-05-10T06:46:20.275Z,15.85
2023-05-10T06:48:46.650Z,15.87
2023-05-10T06:51:12.953Z,15.94
2023-05-10T06:53:39.263Z,16.02
2023-05-10T06:56:05.671Z,16.07
2023-05-10T06:58:31.964Z,16.19
2023-05-10T07:01:03.592Z,16.35
2023-05-10T07:03:30.022Z,16.46
2023-05-10T07:06:02.032Z,16.50
2023-05-10T07:08:28.324Z,16.42
2023-05-10T07:11:02.690Z,16.26
2023-05-10T07:13:29.088Z,16.07
2023-05-10T07:15:55.392Z,15.92
2023-05-10T07:18:21.888Z,15.94
2023-05-10T07:20:48.379Z,15.96
2023-05-10T07:23:14.992Z,16.07
2023-05-10T07:25:41.478Z,15.95
2023-05-10T07:28:07.787Z,15.88
2023-05-10T07:30:34.240Z,15.80
2023-05-10T07:33:00.638Z,15.74
2023-05-10T07:35:27.029Z,15.83
2023-05-10T07:37:53.459Z,15.98
2023-05-10T07:40:19.912Z,16.07
2023-05-10T07:42:46.256Z,16.14
2023-05-10T07:45:12.604Z,16.25
2023-05-10T07:47:38.937Z,16.20
2023-05-10T07:50:06.073Z,16.16
2023-05-10T07:52:32.364Z,16.12
2023-05-10T07:54:58.629Z,16.01
2023-05-10T07:57:25.105Z,15.99
2023-05-10T07:59:51.401Z,16.04
2023-05-10T08:02:17.729Z,16.12
2023-05-10T08:04:44.246Z,16.15
2023-05-10T08:07:10.732Z,16.29
2023-05-10T08:09:37.036Z,16.52
2023-05-10T08:12:03.417Z,16.62
2023-05-10T08:14:30.467Z,16.75
2023-05-10T08:16:56.979Z,16.92
2023-05-10T08:19:23.272Z,17.05
2023-05-10T08:21:49.846Z,17.11
2023-05-10T08:24:16.371Z,17.21
2023-05-10T08:26:42.672Z,17.35
2023-05-10T08:29:09.028Z,17.53
2023-05-10T08:31:35.306Z,17.71
2023-05-10T08:34:01.649Z,17.71
2023-05-10T08:36:27.986Z,17.83
2023-05-10T08:38:55.012Z,17.71
2023-05-10T08:41:22.620Z,18.00
2023-05-10T08:43:49.482Z,18.20
2023-05-10T08:46:18.261Z,18.36
2023-05-10T08:48:49.332Z,18.44
2023-05-10T08:51:19.689Z,18.30
2023-05-10T08:53:46.941Z,17.99
2023-05-10T08:56:13.922Z,17.82
2023-05-10T08:58:40.317Z,17.58
2023-05-10T09:01:06.710Z,17.30
2023-05-10T09:03:33.189Z,17.02
2023-05-10T09:05:59.708Z,16.77
2023-05-10T09:08:26.966Z,16.59
2023-05-10T09:10:55.097Z,16.47
2023-05-10T09:13:23.442Z,16.32
2023-05-10T09:15:50.208Z,16.37
2023-05-10T09:18:16.636Z,16.28
2023-05-10T09:20:43.116Z,16.35
2023-05-10T09:23:09.421Z,16.44
2023-05-10T09:25:36.066Z,16.67
2023-05-10T09:28:02.721Z,17.03
2023-05-10T09:30:31.137Z,17.37
2023-05-10T09:33:00.033Z,17.45
2023-05-10T09:35:29.789Z,17.65
2023-05-10T09:37:58.522Z,17.86
2023-05-10T09:40:26.676Z,18.27
2023-05-10T09:42:58.067Z,18.36
2023-05-10T09:45:26.605Z,18.47
2023-05-10T09:47:53.425Z,18.39
2023-05-10T09:50:20.995Z,18.25
2023-05-10T09:53:01.551Z,17.88
2023-05-10T09:55:41.527Z,17.96
2023-05-10T09:58:08.452Z,18.02
2023-05-10T10:00:39.945Z,18.12
2023-05-10T10:03:07.117Z,18.15
2023-05-10T10:05:35.223Z,18.09
2023-05-10T10:08:04.364Z,17.93
2023-05-10T10:10:32.337Z,17.90
2023-05-10T10:12:58.915Z,17.89
2023-05-10T10:15:25.439Z,17.93
2023-05-10T10:17:53.162Z,18.04
2023-05-10T10:20:21.552Z,18.31
2023-05-10T10:22:48.326Z,18.51
2023-05-10T10:25:17.064Z,18.65
2023-05-10T10:27:57.177Z,18.77
2023-05-10T10:30:23.527Z,18.97
2023-05-10T10:33:28.823Z,19.05
2023-05-10T10:35:59.011Z,19.13
2023-05-10T10:38:25.425Z,19.09
2023-05-10T10:41:10.576Z,19.07
2023-05-10T10:43:36.908Z,19.10
2023-05-10T10:46:13.395Z,19.04
2023-05-10T10:48:40.421Z,18.70
2023-05-10T10:51:06.870Z,18.47
2023-05-10T10:53:33.745Z,18.35
2023-05-10T10:56:10.957Z,18.30
2023-05-10T10:58:39.255Z,18.26
2023-05-10T11:01:19.494Z,18.35
2023-05-10T11:04:01.079Z,18.49
2023-05-10T11:06:31.079Z,18.48
2023-05-10T11:08:57.429Z,18.49
2023-05-10T11:11:24.120Z,18.62
2023-05-10T11:13:51.477Z,18.76
2023-05-10T11:16:25.674Z,19.01
2023-05-10T11:18:55.112Z,19.12
2023-05-10T11:21:21.552Z,19.35
2023-05-10T11:23:47.837Z,19.28
2023-05-10T11:26:14.461Z,19.31
2023-05-10T11:28:48.921Z,19.19
2023-05-10T11:31:16.914Z,19.24
2023-05-10T11:33:47.565Z,19.14
2023-05-10T11:36:18.632Z,19.10
2023-05-10T11:38:45.826Z,18.97
2023-05-10T11:41:12.912Z,18.99
2023-05-10T11:43:39.880Z,18.89
2023-05-10T11:46:12.072Z,18.87
2023-05-10T11:48:42.543Z,18.89
2023-05-10T11:51:10.114Z,18.82
2023-05-10T11:53:36.515Z,18.76
2023-05-10T11:56:07.838Z,18.63
2023-05-10T11:58:35.845Z,18.55
2023-05-10T12:01:03.227Z,18.54
2023-05-10T12:03:30.478Z,18.47
2023-05-10T12:05:58.294Z,18.29
2023-05-10T12:08:26.730Z,18.19
2023-05-10T12:10:54.940Z,18.14
2023-05-10T12:13:21.697Z,18.10
2023-05-10T12:15:48.386Z,18.15
2023-05-10T12:18:15.504Z,18.21
2023-05-10T12:20:42.108Z,18.31
2023-05-10T12:23:13.914Z,18.39
2023-05-10T12:25:40.303Z,18.55
2023-05-10T12:28:08.821Z,18.62
2023-05-10T12:30:36.588Z,18.69
2023-05-10T12:33:08.745Z,18.82
2023-05-10T12:35:45.508Z,19.00
2023-05-10T12:38:37.588Z,19.16
2023-05-10T12:41:05.649Z,19.21
2023-05-10T12:43:33.308Z,19.27
2023-05-10T12:46:00.004Z,19.31
2023-05-10T12:48:26.303Z,19.40
2023-05-10T12:50:52.666Z,19.44
2023-05-10T12:53:18.971Z,19.44
2023-05-10T12:55:45.433Z,19.59
2023-05-10T12:58:15.820Z,19.67
2023-05-10T13:00:47.614Z,19.52
2023-05-10T13:03:14.008Z,19.43
2023-05-10T13:05:40.295Z,19.39
2023-05-10T13:08:06.650Z,19.36
2023-05-10T13:10:33.262Z,19.54
2023-05-10T13:13:00.062Z,19.67
2023-05-10T13:15:27.146Z,19.75
2023-05-10T13:17:54.154Z,19.78
2023-05-10T13:20:20.519Z,19.89
2023-05-10T13:22:47.288Z,20.10
2023-05-10T13:25:14.164Z,20.14
2023-05-10T13:27:41.021Z,20.29
2023-05-10T13:30:08.780Z,20.26
2023-05-10T13:32:36.048Z,20.19
2023-05-10T13:35:02.870Z,20.18
2023-05-10T13:37:29.166Z,20.15
2023-05-10T13:39:55.482Z,19.99
2023-05-10T13:42:23.330Z,19.84
2023-05-10T13:44:50.199Z,19.68
2023-05-10T13:47:16.559Z,19.73
2023-05-10T13:49:42.998Z,19.79
2023-05-10T13:52:09.679Z,19.83
2023-05-10T13:54:36.522Z,19.86
2023-05-10T13:57:02.816Z,19.82
2023-05-10T13:59:29.874Z,19.78
2023-05-10T14:01:56.234Z,19.74
2023-05-10T14:04:22.571Z,19.65
2023-05-10T14:06:48.873Z,19.69
2023-05-10T14:09:15.368Z,19.67
2023-05-10T14:11:41.678Z,19.62
2023-05-10T14:14:08.225Z,19.52
2023-05-10T14:16:34.555Z,19.54
2023-05-10T14:19:01.034Z,19.50
2023-05-10T14:21:27.413Z,19.62
2023-05-10T14:23:53.692Z,19.68
2023-05-10T14:26:20.094Z,19.76
2023-05-10T14:28:46.459Z,19.73
2023-05-10T14:31:12.980Z,19.67
2023-05-10T14:33:39.520Z,19.66
2023-05-10T14:36:06.194Z,19.64
2023-05-10T14:38:32.483Z,19.52
2023-05-10T14:40:58.975Z,19.42
2023-05-10T14:43:25.476Z,19.33
2023-05-10T14:45:51.824Z,19.34
2023-05-10T14:48:18.278Z,19.28
2023-05-10T14:50:45.863Z,19.31
2023-05-10T14:53:12.234Z,19.28
2023-05-10T14:55:38.638Z,19.19
2023-05-10T14:58:04.909Z,19.05
2023-05-10T15:00:31.893Z,19.05
2023-05-10T15:02:58.762Z,18.75
2023-05-10T15:05:25.493Z,18.65
2023-05-10T15:07:52.244Z,18.81
2023-05-10T15:10:19.165Z,18.70
2023-05-10T15:12:45.450Z,18.71
2023-05-10T15:15:11.745Z,18.56
2023-05-10T15:17:38.064Z,18.38
2023-05-10T15:20:04.840Z,18.16
2023-05-10T15:22:32.410Z,17.75
2023-05-10T15:24:59.720Z,17.44
2023-05-10T15:27:26.708Z,17.30
2023-05-10T15:29:53.733Z,17.13
2023-05-10T15:32:20.043Z,16.97
2023-05-10T15:34:46.419Z,16.97
2023-05-10T15:37:12.853Z,16.81
2023-05-10T15:39:39.177Z,16.62
2023-05-10T15:42:05.647Z,16.70
2023-05-10T15:44:32.155Z,16.64
2023-05-10T15:46:58.695Z,16.61
2023-05-10T15:49:25.147Z,16.54
2023-05-10T15:51:51.564Z,16.57
2023-05-10T15:54:17.890Z,16.57
2023-05-10T15:56:44.220Z,16.44
2023-05-10T15:59:10.660Z,16.49
2023-05-10T16:01:37.100Z,16.40
2023-05-10T16:04:03.414Z,16.33
2023-05-10T16:06:29.744Z,16.39
2023-05-10T16:08:56.026Z,16.48
2023-05-10T16:11:22.466Z,16.50
2023-05-10T16:13:48.794Z,16.50
2023-05-10T16:16:15.146Z,16.45
2023-05-10T16:18:41.637Z,16.44
2023-05-10T16:21:07.968Z,16.42
2023-05-10T16:23:34.295Z,16.30
2023-05-10T16:26:00.614Z,16.23
2023-05-10T16:28:27.037Z,15.99
2023-05-10T16:30:53.375Z,15.95
2023-05-10T16:33:19.712Z,15.95
2023-05-10T16:35:46.323Z,16.00
2023-05-10T16:38:12.647Z,15.98
2023-05-10T16:40:38.957Z,16.02
2023-05-10T16:43:05.293Z,15.95
2023-05-10T16:45:32.006Z,15.90
2023-05-10T16:47:58.368Z,15.78
2023-05-10T16:50:24.750Z,15.71
2023-05-10T16:52:51.050Z,15.64
2023-05-10T16:55:17.662Z,15.57
2023-05-10T16:57:44.134Z,15.50
2023-05-10T17:00:11.080Z,15.50
2023-05-10T17:02:37.633Z,15.49
2023-05-10T17:05:04.618Z,15.50
2023-05-10T17:07:30.945Z,15.54
2023-05-10T17:09:57.238Z,15.49
2023-05-10T17:12:23.530Z,15.47
2023-05-10T17:14:49.858Z,15.41
2023-05-10T17:17:16.246Z,15.36
2023-05-10T17:19:45.277Z,15.35
2023-05-10T17:22:13.503Z,15.32
2023-05-10T17:24:39.837Z,15.29
2023-05-10T17:27:06.122Z,15.29
2023-05-10T17:29:32.546Z,15.32
2023-05-10T17:31:59.169Z,15.40
2023-05-10T17:34:25.604Z,15.36
2023-05-10T17:36:51.980Z,15.38
2023-05-10T17:39:18.363Z,15.41
2023-05-10T17:41:44.674Z,15.39
2023-05-10T17:44:10.981Z,15.35
2023-05-10T17:46:37.402Z,15.31
2023-05-10T17:49:03.755Z,15.28
2023-05-10T17:51:30.078Z,15.27
2023-05-10T17:53:56.408Z,15.27
2023-05-10T17:56:22.716Z,15.27
2023-05-10T17:58:49.008Z,15.26
2023-05-10T18:01:15.321Z,15.27
2023-05-10T18:03:41.659Z,15.26
2023-05-10T18:06:08.053Z,15.28
2023-05-10T18:08:34.367Z,15.30
2023-05-10T18:11:01.088Z,15.30
2023-05-10T18:13:27.473Z,15.30
2023-05-10T18:15:53.836Z,15.27
2023-05-10T18:18:20.268Z,15.21
2023-05-10T18:20:46.659Z,15.20
2023-05-10T18:23:13.016Z,15.19
2023-05-10T18:25:39.319Z,15.16
2023-05-10T18:28:05.621Z,15.14
2023-05-10T18:30:32.045Z,15.12
2023-05-10T18:32:58.433Z,15.12
2023-05-10T18:35:24.926Z,15.11
2023-05-10T18:37:51.807Z,15.06
2023-05-10T18:40:18.217Z,15.04
2023-05-10T18:42:44.534Z,15.02
2023-05-10T18:45:11.111Z,14.98
2023-05-10T18:47:37.449Z,14.94
2023-05-10T18:50:04.495Z,14.90
2023-05-10T18:52:30.864Z,14.87
2023-05-10T18:54:57.273Z,14.83
2023-05-10T18:57:23.628Z,14.79
2023-05-10T18:59:50.159Z,14.76
2023-05-10T19:02:17.571Z,14.73
2023-05-10T19:04:44.160Z,14.68
2023-05-10T19:07:10.774Z,14.67
2023-05-10T19:09:37.189Z,14.64
2023-05-10T19:12:03.584Z,14.64
2023-05-10T19:14:29.964Z,14.64
2023-05-10T19:16:56.357Z,14.65
2023-05-10T19:19:24.778Z,14.62
2023-05-10T19:21:51.216Z,14.59
2023-05-10T19:24:17.668Z,14.58
2023-05-10T19:26:44.612Z,14.55
2023-05-10T19:29:13.040Z,14.53
2023-05-10T19:31:39.388Z,14.48
2023-05-10T19:34:06.393Z,14.43
2023-05-10T19:36:34.333Z,14.41
2023-05-10T19:39:00.666Z,14.39
2023-05-10T19:41:26.970Z,14.38
2023-05-10T19:43:53.880Z,14.35
2023-05-10T19:46:20.512Z,14.35
2023-05-10T19:48:48.657Z,14.32
2023-05-10T19:51:16.296Z,14.30
2023-05-10T19:53:42.585Z,14.28
2023-05-10T19:56:08.945Z,14.26
2023-05-10T19:58:35.508Z,14.22
2023-05-10T20:01:02.324Z,14.20
2023-05-10T20:03:28.877Z,14.16
2023-05-10T20:05:55.282Z,14.18
2023-05-10T20:08:21.588Z,14.17
2023-05-10T20:10:47.975Z,14.16
2023-05-10T20:13:14.294Z,14.13
2023-05-10T20:15:40.604Z,14.12
2023-05-10T20:18:07.107Z,14.11
2023-05-10T20:20:33.541Z,14.10
2023-05-10T20:22:59.935Z,14.08
2023-05-10T20:25:26.308Z,14.08
2023-05-10T20:27:52.639Z,14.08
2023-05-10T20:30:19.241Z,14.08
2023-05-10T20:32:45.790Z,14.07
2023-05-10T20:35:12.224Z,14.05
2023-05-10T20:37:39.168Z,14.04
2023-05-10T20:40:06.087Z,14.03
2023-05-10T20:42:32.496Z,14.01
2023-05-10T20:44:59.949Z,13.98
2023-05-10T20:47:26.315Z,13.94
2023-05-10T20:49:52.714Z,13.93
2023-05-10T20:52:19.016Z,13.93
2023-05-10T20:54:45.310Z,13.92
2023-05-10T20:57:11.603Z,13.92
2023-05-10T20:59:38.006Z,13.94
2023-05-10T21:02:04.421Z,13.96
2023-05-10T21:04:30.934Z,13.94
2023-05-10T21:06:57.390Z,13.93
2023-05-10T21:09:23.875Z,13.93
2023-05-10T21:11:50.706Z,13.93
2023-05-10T21:14:17.196Z,13.93
2023-05-10T21:16:43.738Z,13.93
2023-05-10T21:19:10.179Z,13.92
2023-05-10T21:21:36.482Z,13.91
2023-05-10T21:24:02.938Z,13.89
2023-05-10T21:26:29.245Z,13.88
2023-05-10T21:28:55.627Z,13.86
2023-05-10T21:31:22.117Z,13.85
2023-05-10T21:33:48.489Z,13.83
2023-05-10T21:36:14.846Z,13.83
2023-05-10T21:38:41.215Z,13.82
2023-05-10T21:41:07.862Z,13.82
2023-05-10T21:43:34.244Z,13.83
2023-05-10T21:46:00.589Z,13.86
2023-05-10T21:48:26.914Z,13.85
2023-05-10T21:50:53.293Z,13.83
2023-05-10T21:53:19.684Z,13.83
2023-05-10T21:55:46.015Z,13.83
2023-05-10T21:58:12.313Z,13.83
2023-05-10T22:00:38.729Z,13.83
2023-05-10T22:03:05.157Z,13.85
2023-05-10T22:05:31.632Z,13.85
2023-05-10T22:07:57.961Z,13.89
2023-05-10T22:10:24.281Z,13.90
2023-05-10T22:12:50.593Z,13.90
2023-05-10T22:15:17.087Z,13.88
2023-05-10T22:17:43.495Z,13.89
2023-05-10T22:20:09.992Z,13.89
2023-05-10T22:22:36.332Z,13.88
2023-05-10T22:25:02.694Z,13.86
2023-05-10T22:27:29.068Z,13.87
2023-05-10T22:29:56.290Z,13.89
2023-05-10T22:32:22.587Z,13.86
2023-05-10T22:34:49.022Z,13.81
2023-05-10T22:37:15.608Z,13.75
2023-05-10T22:39:42.378Z,13.73
2023-05-10T22:42:09.006Z,13.71
2023-05-10T22:44:35.508Z,13.71
2023-05-10T22:47:02.157Z,13.72
2023-05-10T22:49:28.745Z,13.74
2023-05-10T22:51:55.361Z,13.76
2023-05-10T22:54:21.919Z,13.78
2023-05-10T22:56:48.607Z,13.77
2023-05-10T22:59:15.108Z,13.77
2023-05-10T23:01:41.817Z,13.75
2023-05-10T23:04:08.489Z,13.73
2023-05-10T23:06:35.075Z,13.74
2023-05-10T23:09:01.602Z,13.74
2023-05-10T23:11:28.242Z,13.73
2023-05-10T23:13:54.814Z,13.71
2023-05-10T23:16:21.482Z,13.69
2023-05-10T23:18:48.201Z,13.67
2023-05-10T23:21:15.011Z,13.65
2023-05-10T23:23:41.637Z,13.64
2023-05-10T23:26:08.202Z,13.61
2023-05-10T23:28:35.070Z,13.59
2023-05-10T23:31:01.594Z,13.57
2023-05-10T23:33:28.282Z,13.59
2023-05-10T23:35:54.922Z,13.58
2023-05-10T23:38:21.869Z,13.58
2023-05-10T23:40:49.667Z,13.59
2023-05-10T23:43:19.340Z,13.60
2023-05-10T23:45:58.475Z,13.59
2023-05-10T23:48:25.624Z,13.57
2023-05-10T23:50:52.333Z,13.55
2023-05-10T23:53:18.948Z,13.56
2023-05-10T23:55:45.648Z,13.54
2023-05-10T23:58:12.408Z,13.52
